sensor_id;sensor_type;location;lat;lon;timestamp;pressure;altitude;pressure_sealevel;temperature;humidity
11114;BME280;5610;52.154;9.198;2023-04-07T00:02:26;100720.03;;;9.15;78.30
11114;BME280;5610;52.154;9.198;2023-04-07T00:05:11;100716.59;;;9.13;78.84
11114;BME280;5610;52.154;9.198;2023-04-07T00:07:57;100711.53;;;9.08;79.70
11114;BME280;5610;52.154;9.198;2023-04-07T00:10:43;100717.97;;;9.04;78.73
11114;BME280;5610;52.154;9.198;2023-04-07T00:13:29;100718.28;;;8.98;79.57
11114;BME280;5610;52.154;9.198;2023-04-07T00:16:14;100715.88;;;8.93;81.67
11114;BME280;5610;52.154;9.198;2023-04-07T00:18:59;100707.78;;;8.79;80.22
11114;BME280;5610;52.154;9.198;2023-04-07T00:21:45;100709.03;;;8.72;81.08
11114;BME280;5610;52.154;9.198;2023-04-07T00:24:30;100712.50;;;8.57;82.15
11114;BME280;5610;52.154;9.198;2023-04-07T00:27:16;100716.34;;;8.51;83.46
11114;BME280;5610;52.154;9.198;2023-04-07T00:30:02;100711.88;;;8.51;84.68
11114;BME280;5610;52.154;9.198;2023-04-07T00:32:47;100708.38;;;8.51;85.42
11114;BME280;5610;52.154;9.198;2023-04-07T00:35:34;100712.69;;;8.53;86.33
11114;BME280;5610;52.154;9.198;2023-04-07T00:38:19;100707.38;;;8.53;87.58
11114;BME280;5610;52.154;9.198;2023-04-07T00:41:04;100704.84;;;8.50;86.64
11114;BME280;5610;52.154;9.198;2023-04-07T00:43:51;100707.41;;;8.35;86.01
11114;BME280;5610;52.154;9.198;2023-04-07T00:46:36;100702.81;;;8.38;87.70
11114;BME280;5610;52.154;9.198;2023-04-07T00:49:22;100702.06;;;8.36;87.69
11114;BME280;5610;52.154;9.198;2023-04-07T00:52:09;100704.84;;;8.33;89.16
11114;BME280;5610;52.154;9.198;2023-04-07T00:54:55;100702.91;;;8.37;90.98
11114;BME280;5610;52.154;9.198;2023-04-07T00:57:40;100700.16;;;8.38;89.40
11114;BME280;5610;52.154;9.198;2023-04-07T01:00:27;100700.97;;;8.40;89.66
11114;BME280;5610;52.154;9.198;2023-04-07T01:03:18;100695.75;;;8.39;89.45
11114;BME280;5610;52.154;9.198;2023-04-07T01:06:05;100700.25;;;8.37;89.31
11114;BME280;5610;52.154;9.198;2023-04-07T01:08:56;100703.03;;;8.34;89.98
11114;BME280;5610;52.154;9.198;2023-04-07T01:11:53;100695.63;;;8.23;87.79
11114;BME280;5610;52.154;9.198;2023-04-07T01:14:46;100701.56;;;8.11;87.78
11114;BME280;5610;52.154;9.198;2023-04-07T01:18:09;100706.25;;;8.06;89.96
11114;BME280;5610;52.154;9.198;2023-04-07T01:21:02;100706.06;;;7.91;89.95
11114;BME280;5610;52.154;9.198;2023-04-07T01:24:04;100700.50;;;7.96;91.54
11114;BME280;5610;52.154;9.198;2023-04-07T01:26:59;100699.66;;;7.95;90.50
11114;BME280;5610;52.154;9.198;2023-04-07T01:29:51;100699.91;;;7.91;89.16
11114;BME280;5610;52.154;9.198;2023-04-07T01:32:39;100692.06;;;7.88;89.87
11114;BME280;5610;52.154;9.198;2023-04-07T01:35:26;100694.19;;;7.81;90.38
11114;BME280;5610;52.154;9.198;2023-04-07T01:38:14;100694.41;;;7.77;89.42
11114;BME280;5610;52.154;9.198;2023-04-07T01:41:00;100701.16;;;7.65;89.69
11114;BME280;5610;52.154;9.198;2023-04-07T01:43:47;100697.47;;;7.50;89.89
11114;BME280;5610;52.154;9.198;2023-04-07T01:46:34;100694.34;;;7.42;92.11
11114;BME280;5610;52.154;9.198;2023-04-07T01:49:20;100697.47;;;7.31;93.77
11114;BME280;5610;52.154;9.198;2023-04-07T01:52:07;100697.47;;;7.31;92.44
11114;BME280;5610;52.154;9.198;2023-04-07T01:54:53;100693.31;;;7.26;89.97
11114;BME280;5610;52.154;9.198;2023-04-07T01:57:40;100699.06;;;7.16;89.06
11114;BME280;5610;52.154;9.198;2023-04-07T02:00:31;100699.84;;;7.00;89.75
11114;BME280;5610;52.154;9.198;2023-04-07T02:03:23;100707.00;;;6.98;91.68
11114;BME280;5610;52.154;9.198;2023-04-07T02:06:17;100698.94;;;6.80;89.70
11114;BME280;5610;52.154;9.198;2023-04-07T02:09:06;100694.84;;;6.73;87.82
11114;BME280;5610;52.154;9.198;2023-04-07T02:11:54;100700.19;;;6.92;87.78
11114;BME280;5610;52.154;9.198;2023-04-07T02:14:41;100699.97;;;6.97;88.88
11114;BME280;5610;52.154;9.198;2023-04-07T02:17:31;100699.84;;;7.00;88.85
11114;BME280;5610;52.154;9.198;2023-04-07T02:20:20;100702.22;;;7.06;90.20
11114;BME280;5610;52.154;9.198;2023-04-07T02:23:06;100701.63;;;6.99;86.74
11114;BME280;5610;52.154;9.198;2023-04-07T02:25:55;100704.63;;;7.10;85.20
11114;BME280;5610;52.154;9.198;2023-04-07T02:28:40;100689.03;;;7.23;85.82
11114;BME280;5610;52.154;9.198;2023-04-07T02:31:27;100692.03;;;7.34;86.14
11114;BME280;5610;52.154;9.198;2023-04-07T02:34:13;100699.06;;;7.35;85.89
11114;BME280;5610;52.154;9.198;2023-04-07T02:36:59;100697.41;;;7.33;85.51
11114;BME280;5610;52.154;9.198;2023-04-07T02:39:44;100697.97;;;7.39;87.23
11114;BME280;5610;52.154;9.198;2023-04-07T02:42:30;100698.06;;;7.19;86.82
11114;BME280;5610;52.154;9.198;2023-04-07T02:45:15;100702.06;;;7.09;89.12
11114;BME280;5610;52.154;9.198;2023-04-07T02:48:00;100698.19;;;7.16;89.55
11114;BME280;5610;52.154;9.198;2023-04-07T02:50:45;100702.41;;;7.01;88.28
11114;BME280;5610;52.154;9.198;2023-04-07T02:53:32;100696.09;;;6.85;89.31
11114;BME280;5610;52.154;9.198;2023-04-07T02:56:17;100693.66;;;6.80;89.99
11114;BME280;5610;52.154;9.198;2023-04-07T02:59:03;100693.81;;;6.96;89.65
11114;BME280;5610;52.154;9.198;2023-04-07T03:01:53;100699.13;;;7.15;89.35
11114;BME280;5610;52.154;9.198;2023-04-07T03:04:38;100691.09;;;7.16;90.73
11114;BME280;5610;52.154;9.198;2023-04-07T03:07:24;100689.53;;;7.31;90.86
11114;BME280;5610;52.154;9.198;2023-04-07T03:10:14;100689.69;;;7.28;89.23
11114;BME280;5610;52.154;9.198;2023-04-07T03:12:59;100681.44;;;7.15;90.17
11114;BME280;5610;52.154;9.198;2023-04-07T03:15:45;100686.03;;;7.12;90.29
11114;BME280;5610;52.154;9.198;2023-04-07T03:18:33;100692.81;;;7.18;91.08
11114;BME280;5610;52.154;9.198;2023-04-07T03:21:19;100696.41;;;7.35;92.92
11114;BME280;5610;52.154;9.198;2023-04-07T03:24:05;100692.16;;;7.31;92.05
11114;BME280;5610;52.154;9.198;2023-04-07T03:26:51;100696.22;;;7.40;94.44
11114;BME280;5610;52.154;9.198;2023-04-07T03:29:51;100696.03;;;7.43;95.62
11114;BME280;5610;52.154;9.198;2023-04-07T03:32:37;100691.41;;;7.29;96.49
11114;BME280;5610;52.154;9.198;2023-04-07T03:35:22;100684.31;;;7.30;95.93
11114;BME280;5610;52.154;9.198;2023-04-07T03:38:07;100690.63;;;7.27;93.42
11114;BME280;5610;52.154;9.198;2023-04-07T03:40:54;100689.16;;;7.01;93.19
11114;BME280;5610;52.154;9.198;2023-04-07T03:43:40;100684.00;;;7.17;92.73
11114;BME280;5610;52.154;9.198;2023-04-07T03:46:25;100685.22;;;7.10;90.79
11114;BME280;5610;52.154;9.198;2023-04-07T03:49:11;100690.69;;;7.07;91.43
11114;BME280;5610;52.154;9.198;2023-04-07T03:51:56;100682.28;;;7.16;91.27
11114;BME280;5610;52.154;9.198;2023-04-07T03:54:42;100693.47;;;7.23;91.46
11114;BME280;5610;52.154;9.198;2023-04-07T03:57:28;100685.44;;;7.24;90.75
11114;BME280;5610;52.154;9.198;2023-04-07T04:00:15;100690.66;;;7.26;89.85
11114;BME280;5610;52.154;9.198;2023-04-07T04:03:18;100689.22;;;7.19;89.21
11114;BME280;5610;52.154;9.198;2023-04-07T04:06:36;100696.41;;;7.16;90.82
11114;BME280;5610;52.154;9.198;2023-04-07T04:09:45;100692.69;;;7.02;91.46
11114;BME280;5610;52.154;9.198;2023-04-07T04:12:30;100700.44;;;7.06;91.23
11114;BME280;5610;52.154;9.198;2023-04-07T04:15:23;100700.00;;;6.76;94.43
11114;BME280;5610;52.154;9.198;2023-04-07T04:18:08;100702.81;;;6.53;96.89
11114;BME280;5610;52.154;9.198;2023-04-07T04:20:53;100709.91;;;6.52;98.68
11114;BME280;5610;52.154;9.198;2023-04-07T04:23:39;100700.06;;;6.36;100.00
11114;BME280;5610;52.154;9.198;2023-04-07T04:26:24;100705.63;;;6.29;100.00
11114;BME280;5610;52.154;9.198;2023-04-07T04:29:13;100701.91;;;6.13;100.00
11114;BME280;5610;52.154;9.198;2023-04-07T04:32:01;100703.13;;;6.04;100.00
11114;BME280;5610;52.154;9.198;2023-04-07T04:34:47;100712.84;;;6.04;100.00
11114;BME280;5610;52.154;9.198;2023-04-07T04:37:33;100713.59;;;5.86;100.00
11114;BME280;5610;52.154;9.198;2023-04-07T04:40:20;100711.75;;;5.88;100.00
11114;BME280;5610;52.154;9.198;2023-04-07T04:43:07;100717.59;;;5.96;100.00
11114;BME280;5610;52.154;9.198;2023-04-07T04:45:55;100716.75;;;5.95;100.00
11114;BME280;5610;52.154;9.198;2023-04-07T04:48:45;100719.53;;;5.92;100.00
11114;BME280;5610;52.154;9.198;2023-04-07T04:51:30;100716.28;;;5.84;100.00
11114;BME280;5610;52.154;9.198;2023-04-07T04:54:21;100718.81;;;5.87;100.00
11114;BME280;5610;52.154;9.198;2023-04-07T04:57:07;100730.31;;;5.86;100.00
11114;BME280;5610;52.154;9.198;2023-04-07T04:59:55;100721.31;;;5.90;100.00
11114;BME280;5610;52.154;9.198;2023-04-07T05:02:40;100727.16;;;6.00;100.00
11114;BME280;5610;52.154;9.198;2023-04-07T05:05:27;100720.47;;;6.12;100.00
11114;BME280;5610;52.154;9.198;2023-04-07T05:08:14;100728.06;;;6.19;100.00
11114;BME280;5610;52.154;9.198;2023-04-07T05:10:59;100733.78;;;6.30;100.00
11114;BME280;5610;52.154;9.198;2023-04-07T05:13:49;100732.75;;;6.35;100.00
11114;BME280;5610;52.154;9.198;2023-04-07T05:16:34;100736.25;;;6.35;100.00
11114;BME280;5610;52.154;9.198;2023-04-07T05:19:21;100739.88;;;6.32;100.00
11114;BME280;5610;52.154;9.198;2023-04-07T05:22:11;100736.69;;;6.24;100.00
11114;BME280;5610;52.154;9.198;2023-04-07T05:25:03;100742.91;;;6.23;100.00
11114;BME280;5610;52.154;9.198;2023-04-07T05:27:49;100740.59;;;6.16;100.00
11114;BME280;5610;52.154;9.198;2023-04-07T05:30:35;100746.75;;;6.16;100.00
11114;BME280;5610;52.154;9.198;2023-04-07T05:33:20;100742.44;;;6.14;100.00
11114;BME280;5610;52.154;9.198;2023-04-07T05:36:09;100744.88;;;6.18;100.00
11114;BME280;5610;52.154;9.198;2023-04-07T05:38:58;100747.09;;;6.29;100.00
11114;BME280;5610;52.154;9.198;2023-04-07T05:41:44;100747.94;;;6.29;100.00
11114;BME280;5610;52.154;9.198;2023-04-07T05:44:31;100751.13;;;6.38;100.00
11114;BME280;5610;52.154;9.198;2023-04-07T05:47:17;100751.59;;;6.47;100.00
11114;BME280;5610;52.154;9.198;2023-04-07T05:50:03;100749.63;;;6.52;100.00
11114;BME280;5610;52.154;9.198;2023-04-07T05:52:50;100760.53;;;6.65;100.00
11114;BME280;5610;52.154;9.198;2023-04-07T05:55:42;100755.56;;;6.78;100.00
11114;BME280;5610;52.154;9.198;2023-04-07T05:58:33;100755.81;;;6.92;100.00
11114;BME280;5610;52.154;9.198;2023-04-07T06:01:19;100760.44;;;7.07;100.00
11114;BME280;5610;52.154;9.198;2023-04-07T06:04:05;100759.16;;;7.16;99.55
11114;BME280;5610;52.154;9.198;2023-04-07T06:06:50;100768.53;;;7.23;98.47
11114;BME280;5610;52.154;9.198;2023-04-07T06:09:38;100771.63;;;7.33;97.36
11114;BME280;5610;52.154;9.198;2023-04-07T06:12:24;100772.94;;;7.43;94.52
11114;BME280;5610;52.154;9.198;2023-04-07T06:15:10;100770.84;;;7.50;89.01
11114;BME280;5610;52.154;9.198;2023-04-07T06:17:55;100769.47;;;7.60;87.13
11114;BME280;5610;52.154;9.198;2023-04-07T06:20:41;100770.94;;;7.48;83.21
11114;BME280;5610;52.154;9.198;2023-04-07T06:23:26;100768.97;;;7.33;79.93
11114;BME280;5610;52.154;9.198;2023-04-07T06:26:12;100776.66;;;7.58;81.06
11114;BME280;5610;52.154;9.198;2023-04-07T06:28:59;100776.84;;;7.53;81.14
11114;BME280;5610;52.154;9.198;2023-04-07T06:31:44;100778.09;;;7.65;80.22
11114;BME280;5610;52.154;9.198;2023-04-07T06:34:29;100785.31;;;7.80;80.84
11114;BME280;5610;52.154;9.198;2023-04-07T06:37:14;100787.59;;;7.88;80.19
11114;BME280;5610;52.154;9.198;2023-04-07T06:40:00;100789.88;;;7.95;79.36
11114;BME280;5610;52.154;9.198;2023-04-07T06:42:45;100787.88;;;8.01;78.64
11114;BME280;5610;52.154;9.198;2023-04-07T06:45:41;100793.94;;;8.03;76.42
11114;BME280;5610;52.154;9.198;2023-04-07T06:48:26;100785.84;;;8.06;77.01
11114;BME280;5610;52.154;9.198;2023-04-07T06:51:12;100794.59;;;8.08;76.32
11114;BME280;5610;52.154;9.198;2023-04-07T06:53:57;100788.31;;;8.27;76.42
11114;BME280;5610;52.154;9.198;2023-04-07T06:56:42;100803.88;;;8.35;76.89
11114;BME280;5610;52.154;9.198;2023-04-07T06:59:28;100795.84;;;8.37;76.03
11114;BME280;5610;52.154;9.198;2023-04-07T07:02:14;100790.78;;;8.49;77.72
11114;BME280;5610;52.154;9.198;2023-04-07T07:05:00;100802.63;;;8.60;81.30
11114;BME280;5610;52.154;9.198;2023-04-07T07:07:47;100805.00;;;8.83;77.18
11114;BME280;5610;52.154;9.198;2023-04-07T07:10:32;100801.41;;;8.84;77.27
11114;BME280;5610;52.154;9.198;2023-04-07T07:13:17;100804.16;;;8.83;76.78
11114;BME280;5610;52.154;9.198;2023-04-07T07:16:02;100804.97;;;9.00;77.51
11114;BME280;5610;52.154;9.198;2023-04-07T07:18:49;100813.34;;;9.10;76.69
11114;BME280;5610;52.154;9.198;2023-04-07T07:21:34;100811.41;;;8.96;78.17
11114;BME280;5610;52.154;9.198;2023-04-07T07:24:20;100815.47;;;8.86;78.16
11114;BME280;5610;52.154;9.198;2023-04-07T07:27:05;100815.00;;;8.95;78.94
11114;BME280;5610;52.154;9.198;2023-04-07T07:29:50;100812.19;;;8.81;79.62
11114;BME280;5610;52.154;9.198;2023-04-07T07:32:35;100824.53;;;8.82;80.51
11114;BME280;5610;52.154;9.198;2023-04-07T07:35:22;100818.91;;;8.88;78.42
11114;BME280;5610;52.154;9.198;2023-04-07T07:38:08;100817.25;;;9.03;78.95
11114;BME280;5610;52.154;9.198;2023-04-07T07:40:53;100836.13;;;9.14;78.85
11114;BME280;5610;52.154;9.198;2023-04-07T07:43:38;100829.94;;;9.31;77.08
11114;BME280;5610;52.154;9.198;2023-04-07T07:46:24;100833.41;;;9.49;74.71
11114;BME280;5610;52.154;9.198;2023-04-07T07:49:10;100829.34;;;9.75;74.22
11114;BME280;5610;52.154;9.198;2023-04-07T07:51:57;100837.50;;;10.19;71.21
11114;BME280;5610;52.154;9.198;2023-04-07T07:54:42;100832.97;;;10.37;68.25
11114;BME280;5610;52.154;9.198;2023-04-07T07:57:27;100835.44;;;10.86;68.60
11114;BME280;5610;52.154;9.198;2023-04-07T08:00:14;100841.72;;;11.13;66.51
11114;BME280;5610;52.154;9.198;2023-04-07T08:02:59;100838.16;;;11.57;65.45
11114;BME280;5610;52.154;9.198;2023-04-07T08:05:44;100843.78;;;11.81;64.71
11114;BME280;5610;52.154;9.198;2023-04-07T08:08:31;100834.50;;;12.01;62.85
11114;BME280;5610;52.154;9.198;2023-04-07T08:11:16;100831.06;;;12.13;62.54
11114;BME280;5610;52.154;9.198;2023-04-07T08:14:01;100837.16;;;12.15;61.62
11114;BME280;5610;52.154;9.198;2023-04-07T08:16:47;100838.56;;;12.48;61.29
11114;BME280;5610;52.154;9.198;2023-04-07T08:19:32;100840.09;;;12.10;63.02
11114;BME280;5610;52.154;9.198;2023-04-07T08:22:17;100848.25;;;11.95;62.74
11114;BME280;5610;52.154;9.198;2023-04-07T08:25:05;100843.38;;;12.01;62.33
11114;BME280;5610;52.154;9.198;2023-04-07T08:27:51;100848.25;;;12.36;60.67
11114;BME280;5610;52.154;9.198;2023-04-07T08:30:36;100843.66;;;12.38;60.59
11114;BME280;5610;52.154;9.198;2023-04-07T08:33:21;100847.84;;;12.82;60.66
11114;BME280;5610;52.154;9.198;2023-04-07T08:36:07;100844.41;;;13.32;58.02
11114;BME280;5610;52.154;9.198;2023-04-07T08:38:53;100855.50;;;13.90;56.52
11114;BME280;5610;52.154;9.198;2023-04-07T08:41:40;100856.25;;;13.79;55.66
11114;BME280;5610;52.154;9.198;2023-04-07T08:44:28;100852.41;;;13.70;56.42
11114;BME280;5610;52.154;9.198;2023-04-07T08:47:14;100855.44;;;13.40;57.06
11114;BME280;5610;52.154;9.198;2023-04-07T08:50:02;100852.03;;;13.26;57.14
11114;BME280;5610;52.154;9.198;2023-04-07T08:52:50;100861.41;;;13.18;57.26
11114;BME280;5610;52.154;9.198;2023-04-07T08:55:37;100863.38;;;13.02;58.32
11114;BME280;5610;52.154;9.198;2023-04-07T08:58:24;100859.81;;;13.29;57.30
11114;BME280;5610;52.154;9.198;2023-04-07T09:01:10;100862.22;;;13.06;58.29
11114;BME280;5610;52.154;9.198;2023-04-07T09:03:56;100870.19;;;13.59;57.07
11114;BME280;5610;52.154;9.198;2023-04-07T09:06:42;100865.25;;;13.78;57.80
11114;BME280;5610;52.154;9.198;2023-04-07T09:09:28;100858.34;;;14.36;55.41
11114;BME280;5610;52.154;9.198;2023-04-07T09:12:13;100855.06;;;15.49;53.06
11114;BME280;5610;52.154;9.198;2023-04-07T09:15:00;100859.22;;;16.32;51.33
11114;BME280;5610;52.154;9.198;2023-04-07T09:17:45;100854.03;;;16.83;50.40
11114;BME280;5610;52.154;9.198;2023-04-07T09:20:55;100853.41;;;17.12;49.64
11114;BME280;5610;52.154;9.198;2023-04-07T09:23:41;100855.03;;;17.24;47.77
11114;BME280;5610;52.154;9.198;2023-04-07T09:26:27;100855.56;;;17.18;46.74
11114;BME280;5610;52.154;9.198;2023-04-07T09:29:18;100855.50;;;16.87;47.80
11114;BME280;5610;52.154;9.198;2023-04-07T09:32:05;100851.88;;;17.19;46.83
11114;BME280;5610;52.154;9.198;2023-04-07T09:34:57;100849.47;;;17.37;45.03
11114;BME280;5610;52.154;9.198;2023-04-07T09:37:43;100852.22;;;17.25;46.92
11114;BME280;5610;52.154;9.198;2023-04-07T09:40:28;100853.00;;;17.16;45.36
11114;BME280;5610;52.154;9.198;2023-04-07T09:43:16;100850.81;;;17.73;44.27
11114;BME280;5610;52.154;9.198;2023-04-07T09:46:09;100850.09;;;18.21;44.43
11114;BME280;5610;52.154;9.198;2023-04-07T09:49:02;100852.75;;;18.11;44.59
11114;BME280;5610;52.154;9.198;2023-04-07T09:51:56;100846.31;;;18.43;44.52
11114;BME280;5610;52.154;9.198;2023-04-07T09:54:42;100843.81;;;18.89;43.98
11114;BME280;5610;52.154;9.198;2023-04-07T09:57:28;100854.59;;;18.70;43.22
11114;BME280;5610;52.154;9.198;2023-04-07T10:00:13;100836.50;;;19.09;42.95
11114;BME280;5610;52.154;9.198;2023-04-07T10:02:59;100846.38;;;19.67;41.76
11114;BME280;5610;52.154;9.198;2023-04-07T10:05:47;100852.69;;;20.13;41.17
11114;BME280;5610;52.154;9.198;2023-04-07T10:08:34;100846.81;;;20.63;40.55
11114;BME280;5610;52.154;9.198;2023-04-07T10:11:20;100838.09;;;20.87;39.38
11114;BME280;5610;52.154;9.198;2023-04-07T10:14:06;100841.47;;;21.50;39.44
11114;BME280;5610;52.154;9.198;2023-04-07T10:16:51;100840.69;;;21.66;39.15
11114;BME280;5610;52.154;9.198;2023-04-07T10:19:37;100843.41;;;21.40;39.71
11114;BME280;5610;52.154;9.198;2023-04-07T10:22:24;100840.78;;;22.25;39.41
11114;BME280;5610;52.154;9.198;2023-04-07T10:25:13;100840.31;;;21.95;38.64
11114;BME280;5610;52.154;9.198;2023-04-07T10:28:03;100841.72;;;22.66;37.76
11114;BME280;5610;52.154;9.198;2023-04-07T10:30:50;100844.44;;;22.58;36.04
11114;BME280;5610;52.154;9.198;2023-04-07T10:33:47;100846.00;;;23.25;36.30
11114;BME280;5610;52.154;9.198;2023-04-07T10:36:33;100834.00;;;24.54;35.21
11114;BME280;5610;52.154;9.198;2023-04-07T10:39:20;100833.03;;;26.19;32.10
11114;BME280;5610;52.154;9.198;2023-04-07T10:42:06;100835.25;;;28.54;30.38
11114;BME280;5610;52.154;9.198;2023-04-07T10:44:51;100828.41;;;31.17;27.50
11114;BME280;5610;52.154;9.198;2023-04-07T10:48:08;100826.50;;;33.18;24.73
11114;BME280;5610;52.154;9.198;2023-04-07T10:51:13;100829.16;;;34.63;24.27
11114;BME280;5610;52.154;9.198;2023-04-07T10:54:17;100829.50;;;34.84;23.31
11114;BME280;5610;52.154;9.198;2023-04-07T10:57:12;100830.56;;;34.09;23.33
11114;BME280;5610;52.154;9.198;2023-04-07T11:00:16;100838.31;;;33.72;23.71
11114;BME280;5610;52.154;9.198;2023-04-07T11:03:09;100826.63;;;35.41;22.54
11114;BME280;5610;52.154;9.198;2023-04-07T11:06:02;100821.28;;;36.17;21.30
11114;BME280;5610;52.154;9.198;2023-04-07T11:08:48;100821.34;;;37.82;20.33
11114;BME280;5610;52.154;9.198;2023-04-07T11:11:36;100826.38;;;39.24;19.90
11114;BME280;5610;52.154;9.198;2023-04-07T11:14:27;100817.06;;;40.40;19.03
11114;BME280;5610;52.154;9.198;2023-04-07T11:17:14;100812.47;;;40.09;18.62
11114;BME280;5610;52.154;9.198;2023-04-07T11:20:00;100818.03;;;38.84;19.14
11114;BME280;5610;52.154;9.198;2023-04-07T11:22:58;100811.31;;;38.69;19.61
11114;BME280;5610;52.154;9.198;2023-04-07T11:25:46;100813.56;;;38.98;19.64
11114;BME280;5610;52.154;9.198;2023-04-07T11:28:31;100812.22;;;40.06;18.87
11114;BME280;5610;52.154;9.198;2023-04-07T11:31:21;100809.53;;;41.42;18.73
11114;BME280;5610;52.154;9.198;2023-04-07T11:34:07;100812.66;;;42.08;17.12
11114;BME280;5610;52.154;9.198;2023-04-07T11:36:53;100815.13;;;42.71;17.12
11114;BME280;5610;52.154;9.198;2023-04-07T11:39:42;100812.63;;;43.35;16.12
11114;BME280;5610;52.154;9.198;2023-04-07T11:42:32;100806.03;;;43.44;16.45
11114;BME280;5610;52.154;9.198;2023-04-07T11:45:18;100816.84;;;43.51;16.95
11114;BME280;5610;52.154;9.198;2023-04-07T11:48:05;100810.63;;;43.08;16.84
11114;BME280;5610;52.154;9.198;2023-04-07T11:51:15;100817.41;;;42.88;16.46
11114;BME280;5610;52.154;9.198;2023-04-07T11:54:00;100803.56;;;42.40;16.20
11114;BME280;5610;52.154;9.198;2023-04-07T11:56:46;100802.28;;;41.12;16.87
11114;BME280;5610;52.154;9.198;2023-04-07T11:59:32;100805.09;;;42.51;16.54
11114;BME280;5610;52.154;9.198;2023-04-07T12:02:29;100807.88;;;42.32;16.80
11114;BME280;5610;52.154;9.198;2023-04-07T12:05:16;100809.22;;;42.54;16.02
11114;BME280;5610;52.154;9.198;2023-04-07T12:08:01;100805.09;;;42.32;16.25
11114;BME280;5610;52.154;9.198;2023-04-07T12:10:47;100806.19;;;42.50;16.60
11114;BME280;5610;52.154;9.198;2023-04-07T12:13:32;100805.22;;;43.85;16.29
11114;BME280;5610;52.154;9.198;2023-04-07T12:16:17;100810.78;;;43.30;16.11
11114;BME280;5610;52.154;9.198;2023-04-07T12:19:02;100803.34;;;43.80;16.22
11114;BME280;5610;52.154;9.198;2023-04-07T12:21:49;100813.09;;;43.55;16.59
11114;BME280;5610;52.154;9.198;2023-04-07T12:24:35;100812.34;;;44.19;15.73
11114;BME280;5610;52.154;9.198;2023-04-07T12:27:20;100812.81;;;44.48;15.50
11114;BME280;5610;52.154;9.198;2023-04-07T12:30:06;100811.47;;;44.32;16.32
11114;BME280;5610;52.154;9.198;2023-04-07T12:32:52;100807.84;;;44.90;15.91
11114;BME280;5610;52.154;9.198;2023-04-07T12:35:37;100808.00;;;45.16;15.62
11114;BME280;5610;52.154;9.198;2023-04-07T12:38:24;100810.75;;;46.87;15.24
11114;BME280;5610;52.154;9.198;2023-04-07T12:41:10;100809.59;;;46.19;14.96
11114;BME280;5610;52.154;9.198;2023-04-07T12:43:55;100810.41;;;46.19;15.09
11114;BME280;5610;52.154;9.198;2023-04-07T12:46:40;100819.69;;;46.37;15.07
11114;BME280;5610;52.154;9.198;2023-04-07T12:49:26;100822.97;;;45.25;15.09
11114;BME280;5610;52.154;9.198;2023-04-07T12:52:11;100811.84;;;44.75;14.80
11114;BME280;5610;52.154;9.198;2023-04-07T12:54:57;100813.06;;;44.10;15.73
11114;BME280;5610;52.154;9.198;2023-04-07T12:57:43;100813.44;;;43.08;16.33
11114;BME280;5610;52.154;9.198;2023-04-07T13:00:28;100817.09;;;41.13;16.96
11114;BME280;5610;52.154;9.198;2023-04-07T13:03:13;100817.88;;;39.86;17.24
11114;BME280;5610;52.154;9.198;2023-04-07T13:05:58;100812.28;;;40.89;17.29
11114;BME280;5610;52.154;9.198;2023-04-07T13:08:45;100808.50;;;42.29;16.10
11114;BME280;5610;52.154;9.198;2023-04-07T13:11:32;100818.00;;;43.17;15.89
11114;BME280;5610;52.154;9.198;2023-04-07T13:14:17;100821.50;;;44.24;15.59
11114;BME280;5610;52.154;9.198;2023-04-07T13:17:03;100814.06;;;44.56;15.48
11114;BME280;5610;52.154;9.198;2023-04-07T13:19:48;100813.81;;;45.42;14.45
11114;BME280;5610;52.154;9.198;2023-04-07T13:22:33;100810.94;;;46.39;14.28
11114;BME280;5610;52.154;9.198;2023-04-07T13:25:19;100811.06;;;46.16;14.51
11114;BME280;5610;52.154;9.198;2023-04-07T13:28:05;100815.56;;;46.43;14.37
11114;BME280;5610;52.154;9.198;2023-04-07T13:30:51;100817.09;;;46.49;14.07
11114;BME280;5610;52.154;9.198;2023-04-07T13:33:36;100808.28;;;46.25;14.66
11114;BME280;5610;52.154;9.198;2023-04-07T13:36:21;100815.91;;;46.50;14.19
11114;BME280;5610;52.154;9.198;2023-04-07T13:39:07;100819.06;;;46.58;14.43
11114;BME280;5610;52.154;9.198;2023-04-07T13:41:52;100807.78;;;46.32;14.48
11114;BME280;5610;52.154;9.198;2023-04-07T13:44:38;100817.91;;;46.59;14.33
11114;BME280;5610;52.154;9.198;2023-04-07T13:47:26;100813.50;;;45.52;14.24
11114;BME280;5610;52.154;9.198;2023-04-07T13:50:13;100826.28;;;44.60;14.70
11114;BME280;5610;52.154;9.198;2023-04-07T13:52:58;100823.38;;;44.65;14.86
11114;BME280;5610;52.154;9.198;2023-04-07T13:55:43;100820.63;;;44.96;14.61
11114;BME280;5610;52.154;9.198;2023-04-07T13:58:29;100822.81;;;45.30;14.68
11114;BME280;5610;52.154;9.198;2023-04-07T14:01:16;100823.28;;;45.24;14.80
11114;BME280;5610;52.154;9.198;2023-04-07T14:04:01;100813.03;;;45.59;14.80
11114;BME280;5610;52.154;9.198;2023-04-07T14:06:47;100814.16;;;45.97;14.42
11114;BME280;5610;52.154;9.198;2023-04-07T14:09:32;100814.78;;;45.15;15.09
11114;BME280;5610;52.154;9.198;2023-04-07T14:12:18;100807.50;;;45.14;15.11
11114;BME280;5610;52.154;9.198;2023-04-07T14:15:05;100815.78;;;44.16;15.05
11114;BME280;5610;52.154;9.198;2023-04-07T14:17:52;100810.06;;;44.07;14.55
11114;BME280;5610;52.154;9.198;2023-04-07T14:20:37;100811.13;;;43.42;15.29
11114;BME280;5610;52.154;9.198;2023-04-07T14:23:22;100820.06;;;43.58;15.09
11114;BME280;5610;52.154;9.198;2023-04-07T14:26:09;100811.56;;;43.49;15.04
11114;BME280;5610;52.154;9.198;2023-04-07T14:28:55;100809.63;;;42.66;15.44
11114;BME280;5610;52.154;9.198;2023-04-07T14:31:40;100814.31;;;42.51;15.97
11114;BME280;5610;52.154;9.198;2023-04-07T14:34:27;100817.63;;;41.73;15.67
11114;BME280;5610;52.154;9.198;2023-04-07T14:37:12;100810.59;;;41.76;15.96
11114;BME280;5610;52.154;9.198;2023-04-07T14:39:58;100808.00;;;41.26;16.59
11114;BME280;5610;52.154;9.198;2023-04-07T14:42:44;100812.44;;;41.03;16.41
11114;BME280;5610;52.154;9.198;2023-04-07T14:45:29;100825.31;;;40.99;17.07
11114;BME280;5610;52.154;9.198;2023-04-07T14:48:15;100816.38;;;41.55;16.09
11114;BME280;5610;52.154;9.198;2023-04-07T14:51:02;100820.91;;;40.54;16.36
11114;BME280;5610;52.154;9.198;2023-04-07T14:53:48;100826.81;;;40.42;16.61